Chicago O'Hare International Airport
KORD : rendu visible

Aérodrome :











RETROUVEZ-NOUS SUR...

 
LOGIN :

S'inscrire | Disclaimer

   EN    FR    IT 

 









Légende :    VFR   VFR Marginal   IFR   IFR Intensif   IFR Très Intensif
Visi : 
Plafond : 
>= 8 km
>= 3000ft
5 à 8 km
1000 à 3000 ft
1500m à 5 km
500 à 1000 ft
800 à 1500m
200 à 500 ft
< 800m
< 200 ft
Symboles :   Orages  Brouillard  Fortes neiges  Fortes précipitations  Vent > 20 kt






- Altitude de l'aérodrome : 672 ft
- Code IATA : ORD


KORD - Chicago O'Hare International

DERNIER METAR :
  • 231951Z 22011G19KT 10SM FEW250 12/M01 A2990 RMK AO2 SLP129 T01221006

METARs EXPIRÉS :
  • 231851Z 25011KT 10SM FEW250 11/M01 A2991 RMK AO2 SLP131 T01111006
  • 231751Z 25013G18KT 10SM FEW250 10/M01 A2993 RMK AO2 SLP139 T01001006 10100 20017 56012

TAF KORD
Valide du 23 à 18h jusqu'au 25 à 00h UTC


231724Z 2318/2424 24013G21KT P6SM SCT250
FM240000 26007KT P6SM BKN250
FM240500 32006KT P6SM BKN200
FM240900 02008KT P6SM FEW015 BKN150
FM241500 05011KT P6SM FEW020 OVC120
FM242200 05013G20KT 6SM -RA BKN025 OVC050



MET'MAP, la Météo Aéronautique d'un coup d'oeil ! - Copyright ORBIFLY Décembre 2007 - Disclaimer

ORBIFLY MET'MAP TEAM :

Programmation & Développement : Alexandra Zaïnal
Sur une idée originale de : Baudouin d'Aumeries
Assistance à la programmation : Marc-Olivier Méhu
Soutien technique & logistique : Manuel Goepfert

Contact : metmap@orbifly.com




SOURCES & CREDITS :

   NOAA       Earth
Advisory